Time;durP1;ratioP1;P1;durP2;ratioP2;P2;SDS_P1;SDS_P2;PMS_P1;PMS_P2;Temp;Humidity;BMP_temperature;BMP_pressure;BME280_temperature;BME280_humidity;BME280_pressure;Samples;Min_cycle;Max_cycle;Signal;HPM_P1;HPM_P2
2021/08/06 00:01:57;;;;;;;10.32;7.03;;;22.10;75.10;;;;;;5092661;28;20032;-71
2021/08/06 00:04:23;;;;;;;16.35;7.70;;;22.00;75.10;;;;;;5091816;28;20062;-71
2021/08/06 00:06:49;;;;;;;13.25;7.78;;;22.00;75.20;;;;;;5087036;28;20042;-71
2021/08/06 00:09:14;;;;;;;23.75;8.63;;;22.00;75.20;;;;;;5078080;28;20032;-71
2021/08/06 00:11:40;;;;;;;14.00;8.15;;;22.00;75.30;;;;;;5089797;28;20026;-71
2021/08/06 00:14:07;;;;;;;12.95;8.68;;;22.00;75.40;;;;;;5091622;28;20418;-71
2021/08/06 00:16:34;;;;;;;11.25;9.38;;;21.90;75.40;;;;;;5091718;28;20089;-71
2021/08/06 00:19:00;;;;;;;14.07;9.10;;;21.90;75.40;;;;;;5092047;28;20482;-71
2021/08/06 00:21:26;;;;;;;10.68;8.75;;;21.90;75.50;;;;;;5091200;28;20509;-71
2021/08/06 00:23:52;;;;;;;13.15;8.85;;;21.90;75.60;;;;;;5089483;28;20031;-71
2021/08/06 00:26:18;;;;;;;18.00;9.10;;;21.80;75.60;;;;;;5092157;28;20115;-71
2021/08/06 00:28:44;;;;;;;13.63;8.65;;;21.80;75.60;;;;;;5090896;28;20054;-71
2021/08/06 00:31:10;;;;;;;11.15;8.77;;;21.80;75.70;;;;;;5091766;28;20020;-71
2021/08/06 00:33:38;;;;;;;13.35;8.90;;;21.70;75.70;;;;;;5089759;28;20059;-70
2021/08/06 00:36:06;;;;;;;12.50;8.00;;;21.70;75.70;;;;;;5088765;28;20027;-71
2021/08/06 00:38:32;;;;;;;14.23;8.73;;;21.70;75.70;;;;;;5090460;28;20395;-71
2021/08/06 00:40:59;;;;;;;10.35;7.82;;;21.60;75.70;;;;;;5089722;28;20045;-71
2021/08/06 00:43:35;;;;;;;13.90;8.48;;;21.70;75.90;;;;;;5090450;28;20039;-71
2021/08/06 00:46:05;;;;;;;11.50;8.07;;;21.60;75.90;;;;;;5089706;28;20032;-71
2021/08/06 00:48:35;;;;;;;9.68;7.25;;;21.60;76.50;;;;;;5090076;28;20084;-71
2021/08/06 00:51:01;;;;;;;8.85;7.28;;;21.60;76.00;;;;;;5091286;28;20020;-71
2021/08/06 00:53:29;;;;;;;9.20;7.15;;;21.50;75.90;;;;;;5090777;28;20028;-71
2021/08/06 00:55:58;;;;;;;11.52;7.28;;;21.50;76.00;;;;;;5092853;28;20105;-71
2021/08/06 00:58:24;;;;;;;13.50;7.03;;;21.50;76.00;;;;;;5094289;28;20166;-71
2021/08/06 01:00:50;;;;;;;10.48;7.65;;;21.50;76.00;;;;;;5094928;28;20469;-72
2021/08/06 01:03:27;;;;;;;11.27;7.88;;;21.40;76.00;;;;;;5093452;28;20039;-71
2021/08/06 01:06:07;;;;;;;10.60;7.75;;;21.40;76.10;;;;;;5094467;28;20464;-71
2021/08/06 01:08:41;;;;;;;14.45;8.00;;;21.40;76.10;;;;;;5094348;28;20502;-71
2021/08/06 01:11:08;;;;;;;;;;;21.40;76.10;;;;;;5093448;28;20027;-71
2021/08/06 01:13:44;;;;;;;11.10;7.70;;;21.30;75.90;;;;;;5093952;28;19927;-71
2021/08/06 01:16:12;;;;;;;10.75;8.48;;;21.30;75.90;;;;;;5092717;28;20110;-71
2021/08/06 01:19:12;;;;;;;13.68;8.27;;;21.30;76.10;;;;;;5093576;28;20464;-71
2021/08/06 01:21:43;;;;;;;9.57;7.60;;;21.30;76.30;;;;;;5093571;28;20026;-71
2021/08/06 01:24:17;;;;;;;11.32;7.97;;;21.20;76.40;;;;;;5073759;28;20036;-71
2021/08/06 01:26:47;;;;;;;11.18;8.70;;;21.20;76.50;;;;;;5089387;28;20430;-71
2021/08/06 01:29:15;;;;;;;12.85;8.52;;;21.20;76.50;;;;;;5093965;28;20109;-71
2021/08/06 01:31:48;;;;;;;11.00;8.60;;;21.10;76.50;;;;;;5093668;28;20031;-71
2021/08/06 01:34:20;;;;;;;12.15;9.25;;;21.10;76.60;;;;;;5093151;28;20067;-71
2021/08/06 01:36:46;;;;;;;12.38;8.77;;;21.10;76.70;;;;;;5092237;28;20450;-71
2021/08/06 01:39:19;;;;;;;12.30;7.70;;;21.00;76.70;;;;;;5094336;28;20023;-71
2021/08/06 01:42:15;;;;;;;13.00;8.15;;;21.10;76.70;;;;;;5093481;28;20024;-71
2021/08/06 01:44:55;;;;;;;8.85;7.30;;;21.00;76.80;;;;;;5059547;28;20063;-71
2021/08/06 01:47:40;;;;;;;10.10;7.68;;;21.00;76.90;;;;;;5092560;28;20502;-71
2021/08/06 01:50:19;;;;;;;13.55;8.23;;;21.00;76.90;;;;;;5095026;28;20036;-71
2021/08/06 01:52:54;;;;;;;13.10;8.32;;;21.00;77.00;;;;;;5087174;28;20081;-71
2021/08/06 01:55:21;;;;;;;11.20;7.72;;;20.90;77.00;;;;;;5088366;28;20028;-71
2021/08/06 01:57:52;;;;;;;10.35;7.28;;;20.90;77.10;;;;;;5093458;28;20059;-71
2021/08/06 02:00:26;;;;;;;11.90;7.47;;;20.90;77.20;;;;;;5093931;28;20020;-71
2021/08/06 02:03:01;;;;;;;18.08;8.13;;;20.90;77.20;;;;;;5091849;28;20048;-71
2021/08/06 02:05:29;;;;;;;20.23;8.10;;;20.90;77.30;;;;;;5092891;28;20028;-71
2021/08/06 02:08:03;;;;;;;11.85;8.43;;;20.80;77.30;;;;;;5092295;28;20483;-72
2021/08/06 02:10:30;;;;;;;12.75;9.32;;;20.80;77.30;;;;;;5093481;28;20107;-71
2021/08/06 02:13:02;;;;;;;15.15;7.97;;;20.80;77.50;;;;;;5091617;28;20032;-71
2021/08/06 02:15:28;;;;;;;12.15;8.30;;;20.80;77.50;;;;;;5093301;28;20024;-71
2021/08/06 02:17:55;;;;;;;12.75;8.93;;;20.80;77.60;;;;;;5092305;28;20383;-71
2021/08/06 02:20:33;;;;;;;12.35;8.80;;;20.70;77.70;;;;;;5091817;28;20127;-71
2021/08/06 02:23:02;;;;;;;11.23;8.02;;;20.70;77.60;;;;;;5092873;28;20139;-71
2021/08/06 02:25:29;;;;;;;14.35;7.95;;;20.70;77.60;;;;;;5092462;28;20024;-71
2021/08/06 02:27:58;;;;;;;11.27;8.27;;;20.70;77.70;;;;;;5092050;28;20023;-71
2021/08/06 02:30:31;;;;;;;12.15;7.50;;;20.60;77.70;;;;;;5090656;28;20477;-72
2021/08/06 02:32:58;;;;;;;11.77;7.32;;;20.60;77.60;;;;;;5093384;28;20036;-71
2021/08/06 02:35:24;;;;;;;16.17;7.57;;;20.60;77.70;;;;;;5088066;28;20016;-71
2021/08/06 02:37:50;;;;;;;11.80;7.25;;;20.60;77.80;;;;;;5092775;28;20028;-71
2021/08/06 02:40:16;;;;;;;12.95;7.70;;;20.50;77.80;;;;;;5092723;28;20387;-71
2021/08/06 02:42:42;;;;;;;12.13;7.30;;;20.60;77.90;;;;;;5093167;28;20119;-71
2021/08/06 02:45:09;;;;;;;10.18;7.47;;;20.50;77.90;;;;;;5092148;28;20031;-71
2021/08/06 02:47:35;;;;;;;12.38;6.80;;;20.60;78.00;;;;;;5084169;28;20028;-71
2021/08/06 02:50:01;;;;;;;10.00;6.70;;;20.50;77.90;;;;;;5092288;28;20441;-71
2021/08/06 02:52:26;;;;;;;8.55;6.40;;;20.50;78.00;;;;;;5089243;28;20042;-71
2021/08/06 02:54:53;;;;;;;9.80;6.15;;;20.50;78.10;;;;;;5089397;28;20395;-71
2021/08/06 02:57:19;;;;;;;11.13;7.50;;;20.50;78.90;;;;;;5085427;28;20016;-71
2021/08/06 02:59:45;;;;;;;12.55;7.88;;;20.40;78.30;;;;;;5077801;28;20028;-71
2021/08/06 03:02:11;;;;;;;9.65;6.35;;;20.50;78.40;;;;;;5091587;28;20024;-71
2021/08/06 03:04:38;;;;;;;15.63;7.43;;;20.40;78.40;;;;;;5087894;28;20506;-71
2021/08/06 03:07:09;;;;;;;11.02;7.82;;;20.40;78.40;;;;;;5092482;28;20509;-71
2021/08/06 03:09:35;;;;;;;12.20;7.80;;;20.30;78.50;;;;;;5092809;28;20510;-71
2021/08/06 03:12:01;;;;;;;12.90;7.43;;;20.30;78.60;;;;;;5092531;28;20032;-71
2021/08/06 03:14:33;;;;;;;10.50;8.05;;;20.40;78.80;;;;;;5090569;28;20503;-71
2021/08/06 03:17:01;;;;;;;9.18;7.03;;;20.30;78.90;;;;;;5091583;28;20062;-71
2021/08/06 03:19:27;;;;;;;16.20;8.32;;;20.30;79.10;;;;;;5090079;28;20036;-71
2021/08/06 03:21:53;;;;;;;16.70;9.27;;;20.30;79.10;;;;;;5083418;28;20049;-71
2021/08/06 03:24:19;;;;;;;15.63;9.88;;;20.30;79.30;;;;;;5090328;28;20036;-71
2021/08/06 03:26:45;;;;;;;17.02;8.75;;;20.30;79.40;;;;;;5091744;28;20458;-71
2021/08/06 03:29:11;;;;;;;17.15;10.02;;;20.20;79.30;;;;;;5090302;28;20467;-72
2021/08/06 03:31:38;;;;;;;16.55;9.70;;;20.20;79.40;;;;;;5090734;28;20053;-71
2021/08/06 03:34:04;;;;;;;15.60;9.38;;;20.20;79.50;;;;;;5093226;28;20032;-72
2021/08/06 03:36:29;;;;;;;16.38;9.98;;;20.20;79.40;;;;;;5089991;28;20016;-71
2021/08/06 03:38:56;;;;;;;14.75;9.40;;;20.20;79.70;;;;;;5091802;28;20067;-71
2021/08/06 03:41:22;;;;;;;15.32;9.88;;;20.20;79.90;;;;;;5093102;28;20055;-71
2021/08/06 03:43:50;;;;;;;12.73;7.97;;;20.20;80.30;;;;;;5077570;28;20556;-71
2021/08/06 03:46:16;;;;;;;12.77;8.98;;;20.10;80.20;;;;;;5091665;28;20028;-71
2021/08/06 03:48:42;;;;;;;11.07;8.57;;;20.10;80.30;;;;;;5077408;28;20138;-71
2021/08/06 03:51:08;;;;;;;11.00;9.02;;;20.10;80.30;;;;;;5091641;28;20106;-71
2021/08/06 03:53:34;;;;;;;17.50;9.45;;;20.10;80.50;;;;;;5089789;28;20540;-71
2021/08/06 03:55:59;;;;;;;14.80;10.25;;;20.10;80.60;;;;;;5082703;28;20430;-71
2021/08/06 03:58:25;;;;;;;15.68;9.57;;;20.10;80.70;;;;;;5090095;28;20032;-72
2021/08/06 04:00:52;;;;;;;12.32;9.32;;;20.10;80.80;;;;;;5089978;28;20476;-71
2021/08/06 04:03:18;;;;;;;17.02;10.25;;;20.10;81.40;;;;;;5083202;28;20047;-71
2021/08/06 04:05:44;;;;;;;11.65;9.07;;;20.10;81.50;;;;;;5090575;28;20399;-71
2021/08/06 04:08:13;;;;;;;12.23;8.95;;;20.10;81.00;;;;;;5091487;28;20024;-71
2021/08/06 04:10:44;;;;;;;18.33;8.48;;;20.10;81.00;;;;;;5090377;28;20074;-71
2021/08/06 04:13:14;;;;;;;12.23;8.88;;;20.00;80.90;;;;;;5091617;28;20040;-71
2021/08/06 04:15:39;;;;;;;15.20;9.63;;;20.00;80.70;;;;;;5090036;28;20024;-71
2021/08/06 04:18:05;;;;;;;15.80;9.70;;;20.00;80.60;;;;;;5091209;28;20031;-71
2021/08/06 04:20:31;;;;;;;14.38;9.23;;;20.00;80.60;;;;;;5091608;28;20028;-72
2021/08/06 04:22:56;;;;;;;14.82;9.32;;;20.00;80.70;;;;;;5090632;28;20031;-71
2021/08/06 04:25:24;;;;;;;16.90;9.90;;;20.00;80.70;;;;;;5090758;28;20085;-71
2021/08/06 04:27:50;;;;;;;15.23;8.35;;;20.00;80.90;;;;;;5089423;28;20031;-71
2021/08/06 04:30:16;;;;;;;14.50;8.82;;;20.00;80.70;;;;;;5091430;28;20028;-72
2021/08/06 04:32:42;;;;;;;17.65;9.80;;;20.00;80.70;;;;;;5091023;28;20035;-71
2021/08/06 04:35:09;;;;;;;12.13;9.00;;;20.00;80.70;;;;;;5089515;28;20024;-72
2021/08/06 04:37:35;;;;;;;16.25;9.68;;;20.00;80.80;;;;;;5090794;28;20028;-72
2021/08/06 04:40:00;;;;;;;14.60;10.38;;;20.00;80.70;;;;;;5088995;28;20027;-72
2021/08/06 04:42:29;;;;;;;12.57;8.98;;;19.90;80.70;;;;;;5090755;28;20032;-71
2021/08/06 04:44:54;;;;;;;16.58;10.18;;;19.90;80.90;;;;;;5090312;28;20085;-71
2021/08/06 04:47:21;;;;;;;17.13;10.52;;;19.90;80.90;;;;;;5089855;28;20049;-71
2021/08/06 04:49:46;;;;;;;13.43;9.32;;;20.00;81.10;;;;;;5091373;28;20067;-71
2021/08/06 04:52:12;;;;;;;14.57;9.48;;;20.00;81.00;;;;;;5091131;28;20032;-75
2021/08/06 04:54:38;;;;;;;15.07;9.65;;;20.00;80.90;;;;;;5089136;28;20024;-75
2021/08/06 04:57:04;;;;;;;16.20;9.43;;;20.00;80.80;;;;;;5090409;28;20020;-71
2021/08/06 04:59:30;;;;;;;15.65;9.95;;;19.90;80.90;;;;;;5091326;28;20541;-71
2021/08/06 05:01:56;;;;;;;14.90;9.27;;;20.00;81.20;;;;;;5088569;28;20032;-71
2021/08/06 05:04:22;;;;;;;14.57;9.98;;;20.00;81.30;;;;;;5090471;28;20028;-71
2021/08/06 05:06:50;;;;;;;15.60;9.35;;;20.00;81.60;;;;;;5089317;28;20493;-71
2021/08/06 05:09:15;;;;;;;14.23;9.32;;;20.00;81.30;;;;;;5089330;28;20111;-71
2021/08/06 05:11:41;;;;;;;12.93;9.93;;;20.00;81.50;;;;;;5090548;28;20020;-71
2021/08/06 05:14:07;;;;;;;13.05;9.00;;;20.00;81.60;;;;;;5088684;28;20056;-71
2021/08/06 05:16:33;;;;;;;8.25;6.47;;;19.90;81.70;;;;;;5089112;28;20044;-72
2021/08/06 05:19:00;;;;;;;15.70;6.93;;;19.90;82.00;;;;;;5090011;28;20086;-72
2021/08/06 05:21:26;;;;;;;9.98;5.72;;;20.00;81.90;;;;;;5090072;28;20062;-72
2021/08/06 05:23:51;;;;;;;10.20;7.30;;;20.00;81.90;;;;;;5089170;28;20032;-72
2021/08/06 05:26:17;;;;;;;9.57;6.63;;;20.00;81.90;;;;;;5090113;28;20117;-72
2021/08/06 05:28:43;;;;;;;11.05;7.95;;;20.00;82.10;;;;;;5090588;28;20024;-75
2021/08/06 05:31:10;;;;;;;14.35;6.88;;;20.00;82.00;;;;;;5088711;28;20028;-73
2021/08/06 05:33:36;;;;;;;15.55;7.03;;;20.10;82.10;;;;;;5090571;28;20027;-72
2021/08/06 05:36:02;;;;;;;13.10;7.05;;;20.10;82.30;;;;;;5090645;28;20078;-71
2021/08/06 05:38:28;;;;;;;12.45;6.35;;;20.00;82.20;;;;;;5089289;28;20625;-75
2021/08/06 05:40:54;;;;;;;10.60;6.93;;;20.10;82.20;;;;;;5090247;28;20046;-71
2021/08/06 05:43:21;;;;;;;11.50;6.03;;;20.10;82.40;;;;;;5092193;28;20098;-72
2021/08/06 05:45:46;;;;;;;15.13;6.53;;;20.10;82.30;;;;;;5094027;28;20498;-72
2021/08/06 05:48:16;;;;;;;9.55;6.18;;;20.10;82.60;;;;;;5092830;28;20024;-73
2021/08/06 05:50:43;;;;;;;13.13;6.63;;;20.20;82.50;;;;;;5091887;28;20426;-72
2021/08/06 05:53:16;;;;;;;;;;;20.20;82.10;;;;;;5092601;28;20028;-73
2021/08/06 05:55:48;;;;;;;11.00;5.40;;;20.20;81.60;;;;;;5090943;28;19915;-72
2021/08/06 05:58:14;;;;;;;11.45;6.00;;;20.20;81.80;;;;;;5092592;28;20023;-72
2021/08/06 06:00:40;;;;;;;9.27;6.35;;;20.20;82.00;;;;;;5092806;28;20035;-72
2021/08/06 06:03:17;;;;;;;8.38;5.88;;;20.20;82.20;;;;;;5091535;28;20111;-72
2021/08/06 06:06:09;;;;;;;9.00;5.80;;;20.30;82.90;;;;;;5088691;28;20091;-72
2021/08/06 06:08:35;;;;;;;7.53;5.47;;;20.30;82.10;;;;;;5091480;28;20479;-72
2021/08/06 06:11:01;;;;;;;7.72;4.72;;;20.30;82.20;;;;;;5082495;28;20059;-72
2021/08/06 06:13:28;;;;;;;7.90;5.32;;;20.40;82.20;;;;;;5087128;28;20074;-72
2021/08/06 06:15:55;;;;;;;7.45;4.53;;;20.40;82.10;;;;;;5090776;28;20027;-72
2021/08/06 06:18:22;;;;;;;8.70;5.93;;;20.40;81.90;;;;;;5091024;28;20147;-72
2021/08/06 06:20:48;;;;;;;9.32;5.55;;;20.40;82.00;;;;;;5091825;28;20020;-72
2021/08/06 06:23:15;;;;;;;7.90;4.97;;;20.40;82.00;;;;;;5090907;28;20391;-72
2021/08/06 06:25:42;;;;;;;10.27;5.90;;;20.50;82.00;;;;;;5090880;28;20031;-72
2021/08/06 06:28:08;;;;;;;9.52;5.63;;;20.50;81.90;;;;;;5092669;28;20016;-72
2021/08/06 06:30:48;;;;;;;8.07;5.10;;;20.50;82.00;;;;;;5091140;28;20028;-72
2021/08/06 06:33:15;;;;;;;7.20;5.22;;;20.50;81.90;;;;;;5091576;28;20499;-72
2021/08/06 06:35:42;;;;;;;9.50;5.50;;;20.50;81.90;;;;;;5092541;28;20353;-72
2021/08/06 06:38:08;;;;;;;9.02;5.47;;;20.60;81.90;;;;;;5090835;28;20020;-72
2021/08/06 06:40:35;;;;;;;14.95;6.05;;;20.60;81.90;;;;;;5085301;28;20020;-73
2021/08/06 06:43:06;;;;;;;8.55;5.35;;;20.60;81.90;;;;;;5091539;28;20024;-73
2021/08/06 06:45:32;;;;;;;5.97;4.75;;;20.70;81.90;;;;;;5092884;28;20621;-73
2021/08/06 06:48:00;;;;;;;11.57;5.78;;;20.70;81.70;;;;;;5091469;28;20059;-72
2021/08/06 06:50:29;;;;;;;8.38;5.13;;;20.70;81.60;;;;;;5091787;28;20059;-73
2021/08/06 06:52:56;;;;;;;8.52;5.20;;;20.70;81.40;;;;;;5091701;28;20020;-72
2021/08/06 06:55:22;;;;;;;7.70;5.20;;;20.70;81.30;;;;;;5090652;28;20085;-73
2021/08/06 06:57:56;;;;;;;9.48;4.75;;;20.80;81.40;;;;;;5092476;28;20094;-77
2021/08/06 07:00:29;;;;;;;7.18;4.70;;;20.80;81.40;;;;;;5091905;28;20028;-72
2021/08/06 07:02:56;;;;;;;8.05;4.93;;;20.80;81.00;;;;;;5090888;28;20176;-72
2021/08/06 07:05:22;;;;;;;9.25;4.57;;;20.80;81.20;;;;;;5091394;28;20020;-71
2021/08/06 07:07:49;;;;;;;11.40;4.90;;;20.80;81.30;;;;;;5091843;28;20024;-71
2021/08/06 07:10:15;;;;;;;6.18;4.45;;;20.80;81.50;;;;;;5091511;28;20024;-71
2021/08/06 07:12:42;;;;;;;9.70;4.82;;;20.80;81.40;;;;;;5091685;28;20122;-74
2021/08/06 07:15:10;;;;;;;8.80;5.45;;;20.80;81.80;;;;;;5091252;28;20024;-75
2021/08/06 07:17:37;;;;;;;7.43;5.55;;;20.80;82.10;;;;;;5092171;28;20027;-74
2021/08/06 07:20:06;;;;;;;14.15;5.50;;;20.90;82.20;;;;;;5091700;28;20028;-75
2021/08/06 07:22:32;;;;;;;7.13;4.80;;;20.90;82.50;;;;;;5090867;28;20118;-75
2021/08/06 07:24:58;;;;;;;12.82;5.78;;;20.90;82.40;;;;;;5092174;28;20490;-75
2021/08/06 07:27:24;;;;;;;8.73;5.38;;;20.90;82.70;;;;;;5091225;28;20020;-75
2021/08/06 07:29:50;;;;;;;10.43;5.68;;;20.90;82.90;;;;;;5091598;28;20059;-74
2021/08/06 07:32:16;;;;;;;10.80;5.60;;;20.90;82.70;;;;;;5091204;28;20028;-75
2021/08/06 07:34:42;;;;;;;9.18;5.82;;;20.90;82.90;;;;;;5091832;28;20078;-75
2021/08/06 07:37:08;;;;;;;12.98;5.47;;;20.90;82.70;;;;;;5090031;28;20080;-74
2021/08/06 07:39:34;;;;;;;8.32;5.25;;;20.90;82.90;;;;;;5091653;28;20024;-74
2021/08/06 07:42:00;;;;;;;7.20;5.13;;;20.90;82.60;;;;;;5091987;28;20024;-74
2021/08/06 07:44:26;;;;;;;11.73;5.30;;;21.00;82.70;;;;;;5090051;28;20036;-74
2021/08/06 07:46:52;;;;;;;11.18;5.95;;;21.00;82.50;;;;;;5091494;28;20028;-74
2021/08/06 07:49:19;;;;;;;11.43;5.28;;;21.00;82.40;;;;;;5091351;28;20024;-74
2021/08/06 07:51:45;;;;;;;6.50;4.72;;;21.00;82.40;;;;;;5090495;28;20376;-73
2021/08/06 07:54:11;;;;;;;12.20;4.88;;;21.10;82.10;;;;;;5089147;28;20035;-73
2021/08/06 07:56:37;;;;;;;7.13;5.40;;;21.00;81.70;;;;;;5090207;28;20052;-74
2021/08/06 07:59:03;;;;;;;10.20;5.57;;;21.10;82.10;;;;;;5090087;28;20023;-74
2021/08/06 08:01:30;;;;;;;8.27;5.28;;;21.10;82.40;;;;;;5092650;28;20020;-74
2021/08/06 08:03:56;;;;;;;8.23;5.13;;;21.10;82.30;;;;;;5089809;28;20166;-74
2021/08/06 08:06:22;;;;;;;7.07;4.90;;;21.10;81.40;;;;;;5091001;28;20049;-68
2021/08/06 08:08:47;;;;;;;10.13;5.22;;;21.20;81.80;;;;;;5090518;28;20086;-68
2021/08/06 08:11:13;;;;;;;10.60;5.13;;;21.20;82.00;;;;;;5090173;28;20024;-68
2021/08/06 08:13:39;;;;;;;10.82;5.25;;;21.20;82.40;;;;;;5090905;28;20105;-68
2021/08/06 08:16:05;;;;;;;6.78;4.72;;;21.20;82.60;;;;;;5087337;28;20032;-68
2021/08/06 08:18:30;;;;;;;8.43;4.68;;;21.20;82.40;;;;;;5091333;28;20092;-68
2021/08/06 08:20:57;;;;;;;8.65;4.90;;;21.20;82.50;;;;;;5090711;28;20047;-67
2021/08/06 08:23:23;;;;;;;8.20;4.90;;;21.30;82.40;;;;;;5090998;28;20487;-71
2021/08/06 08:25:53;;;;;;;12.15;5.13;;;21.20;82.20;;;;;;5091023;28;20016;-71
2021/08/06 08:28:20;;;;;;;7.50;4.90;;;21.20;82.90;;;;;;5078290;28;20024;-71
2021/08/06 08:30:48;;;;;;;7.45;4.70;;;21.20;83.30;;;;;;5092079;28;20020;-71
2021/08/06 08:33:18;;;;;;;7.03;4.60;;;21.20;83.30;;;;;;5088214;28;20059;-72
2021/08/06 08:35:45;;;;;;;8.95;4.47;;;21.30;83.60;;;;;;5090408;28;20479;-72
2021/08/06 08:38:11;;;;;;;11.25;3.88;;;21.30;83.90;;;;;;5090223;28;20456;-72
2021/08/06 08:40:39;;;;;;;10.40;4.60;;;21.30;83.60;;;;;;5089757;28;20058;-71
2021/08/06 08:43:05;;;;;;;7.55;4.63;;;21.30;83.20;;;;;;5090869;28;20036;-71
2021/08/06 08:45:32;;;;;;;5.95;3.97;;;21.30;83.40;;;;;;5090401;28;20024;-72
2021/08/06 08:47:59;;;;;;;6.05;3.90;;;21.30;83.00;;;;;;5089127;28;20031;-71
2021/08/06 08:50:26;;;;;;;8.52;4.45;;;21.40;83.10;;;;;;5088768;28;20031;-71
2021/08/06 08:52:53;;;;;;;8.88;4.10;;;21.40;83.00;;;;;;5089323;28;20113;-72
2021/08/06 08:55:18;;;;;;;11.50;4.25;;;21.40;83.00;;;;;;5087420;28;20035;-72
2021/08/06 08:57:46;;;;;;;6.85;3.67;;;21.40;83.00;;;;;;5089365;28;20111;-71
2021/08/06 09:00:15;;;;;;;7.97;3.63;;;21.50;83.00;;;;;;5087992;28;20111;-71
2021/08/06 09:02:44;;;;;;;8.38;4.18;;;21.40;82.40;;;;;;5105524;28;20020;-71
2021/08/06 09:05:15;;;;;;;5.90;3.67;;;21.40;82.50;;;;;;5089428;28;20032;-69
2021/08/06 09:07:49;;;;;;;6.93;4.18;;;21.50;82.50;;;;;;5085444;28;20070;-71
2021/08/06 09:10:28;;;;;;;5.40;3.80;;;21.50;82.00;;;;;;5090585;28;20122;-69
2021/08/06 09:13:12;;;;;;;11.00;4.32;;;21.50;82.70;;;;;;5089117;28;20066;-69
2021/08/06 09:15:52;;;;;;;6.25;3.80;;;21.50;83.00;;;;;;5085954;28;20031;-69
2021/08/06 09:18:35;;;;;;;7.88;4.05;;;21.60;82.80;;;;;;5092409;28;20093;-69
2021/08/06 09:21:15;;;;;;;5.93;3.70;;;21.50;82.50;;;;;;5095426;28;20032;-69
2021/08/06 09:23:57;;;;;;;6.28;4.07;;;21.50;82.10;;;;;;5094357;28;20040;-69
2021/08/06 09:26:55;;;;;;;9.18;4.25;;;21.50;82.50;;;;;;5095209;28;20016;-69
2021/08/06 09:29:22;;;;;;;8.00;4.15;;;21.50;80.30;;;;;;5058360;28;20089;-69
2021/08/06 09:31:50;;;;;;;8.55;3.80;;;21.50;80.10;;;;;;5094816;28;20040;-68
2021/08/06 09:34:27;;;;;;;9.63;3.67;;;21.50;80.70;;;;;;5095044;28;20472;-68
2021/08/06 09:36:58;;;;;;;9.00;3.20;;;21.40;80.80;;;;;;5076471;28;20031;-68
2021/08/06 09:39:26;;;;;;;7.28;3.50;;;21.40;80.60;;;;;;5095340;28;20363;-68
2021/08/06 09:41:51;;;;;;;9.75;3.22;;;21.30;80.30;;;;;;5094495;28;20028;-68
2021/08/06 09:44:23;;;;;;;8.95;4.10;;;21.30;80.50;;;;;;5094602;28;20072;-68
2021/08/06 09:46:49;;;;;;;6.88;3.33;;;21.30;81.60;;;;;;5094220;28;20033;-69
2021/08/06 09:49:18;;;;;;;4.35;2.70;;;21.20;82.20;;;;;;5094487;28;20020;-69
2021/08/06 09:51:45;;;;;;;4.97;2.78;;;21.30;82.40;;;;;;5095067;28;20038;-68
2021/08/06 09:54:28;;;;;;;5.65;2.80;;;21.30;82.40;;;;;;5094238;28;20507;-68
2021/08/06 09:57:05;;;;;;;4.85;2.90;;;21.30;83.00;;;;;;5090057;28;20393;-70
2021/08/06 09:59:32;;;;;;;3.80;1.90;;;21.30;83.30;;;;;;5094243;28;20036;-69
2021/08/06 10:02:15;;;;;;;3.30;2.00;;;21.30;83.00;;;;;;5095094;28;20094;-69
2021/08/06 10:04:43;;;;;;;4.33;1.93;;;21.30;83.30;;;;;;5091576;28;20054;-68
2021/08/06 10:07:08;;;;;;;3.03;2.10;;;21.30;83.40;;;;;;5094043;28;20024;-69
2021/08/06 10:09:34;;;;;;;3.40;2.00;;;21.40;84.20;;;;;;5095420;28;20457;-69
2021/08/06 10:12:01;;;;;;;2.65;2.13;;;21.40;84.90;;;;;;5094144;28;20115;-69
2021/08/06 10:14:27;;;;;;;6.18;2.60;;;21.40;85.10;;;;;;5094191;28;20131;-69
2021/08/06 10:16:55;;;;;;;2.80;1.90;;;21.50;85.90;;;;;;5095378;28;20111;-69
2021/08/06 10:19:21;;;;;;;4.30;2.35;;;21.50;84.00;;;;;;5093007;28;20114;-68
2021/08/06 10:21:47;;;;;;;5.15;2.03;;;21.50;83.40;;;;;;5095006;28;20024;-69
2021/08/06 10:24:15;;;;;;;3.67;1.50;;;21.60;83.40;;;;;;5093714;28;20109;-69
2021/08/06 10:26:46;;;;;;;3.53;2.10;;;21.60;82.20;;;;;;5081395;28;20028;-70
2021/08/06 10:29:12;;;;;;;2.80;1.95;;;21.60;82.00;;;;;;5093599;28;20047;-70
2021/08/06 10:31:38;;;;;;;5.63;2.63;;;21.60;81.50;;;;;;5093061;28;20369;-70
2021/08/06 10:34:10;;;;;;;3.92;2.58;;;21.60;82.00;;;;;;5094714;28;20062;-69
2021/08/06 10:36:50;;;;;;;4.03;2.17;;;21.70;82.80;;;;;;5092336;28;20081;-70
2021/08/06 10:39:32;;;;;;;7.25;2.20;;;21.70;82.90;;;;;;5091392;28;20016;-70
2021/08/06 10:41:59;;;;;;;5.95;2.60;;;21.70;82.20;;;;;;5091474;28;20020;-70
2021/08/06 10:44:26;;;;;;;2.78;1.80;;;21.70;82.30;;;;;;5093402;28;20054;-69
2021/08/06 10:46:58;;;;;;;3.03;2.20;;;21.70;81.60;;;;;;5093212;28;20416;-69
2021/08/06 10:49:26;;;;;;;5.13;2.47;;;21.80;82.50;;;;;;5090495;28;20031;-69
2021/08/06 10:52:18;;;;;;;6.25;2.60;;;21.80;83.20;;;;;;5090981;28;20046;-69
2021/08/06 10:54:45;;;;;;;4.72;2.30;;;21.80;83.40;;;;;;5091032;28;20449;-70
2021/08/06 10:57:28;;;;;;;3.50;2.25;;;21.90;83.10;;;;;;5089639;28;20055;-69
2021/08/06 10:59:54;;;;;;;4.32;2.30;;;22.00;83.30;;;;;;5091650;28;20028;-76
2021/08/06 11:02:41;;;;;;;4.03;2.00;;;22.00;83.70;;;;;;5088503;28;20130;-73
2021/08/06 11:05:29;;;;;;;2.40;1.52;;;22.00;84.00;;;;;;5086612;28;20500;-72
2021/08/06 11:07:55;;;;;;;3.78;1.88;;;22.10;84.70;;;;;;5088564;28;20150;-71
2021/08/06 11:10:43;;;;;;;4.32;2.13;;;22.10;84.90;;;;;;5090103;28;20032;-70
2021/08/06 11:13:33;;;;;;;4.35;2.40;;;22.20;86.00;;;;;;5089054;28;20105;-70
2021/08/06 11:16:06;;;;;;;7.20;2.42;;;22.20;85.00;;;;;;5088678;28;20458;-69
2021/08/06 11:18:32;;;;;;;3.58;2.42;;;22.30;85.00;;;;;;5091085;28;21269;-69
2021/08/06 11:20:59;;;;;;;4.28;2.15;;;22.30;84.70;;;;;;5086549;28;20040;-70
2021/08/06 11:23:26;;;;;;;3.83;2.50;;;22.30;83.90;;;;;;5090647;28;20504;-70
2021/08/06 11:25:53;;;;;;;7.13;2.95;;;22.40;83.60;;;;;;5087368;28;20433;-70
2021/08/06 11:28:28;;;;;;;4.28;2.67;;;22.40;83.70;;;;;;5089126;28;20036;-70
2021/08/06 11:30:53;;;;;;;3.70;1.85;;;22.50;82.50;;;;;;5091622;28;20069;-70
2021/08/06 11:33:22;;;;;;;4.50;2.60;;;22.50;81.20;;;;;;5091693;28;20020;-70
2021/08/06 11:35:48;;;;;;;2.35;1.77;;;22.50;81.40;;;;;;5088998;28;20032;-70
2021/08/06 11:38:21;;;;;;;2.58;1.90;;;22.50;81.70;;;;;;5090895;28;20707;-70
2021/08/06 11:40:49;;;;;;;4.00;2.45;;;22.60;81.30;;;;;;5081535;28;20032;-70
2021/08/06 11:43:16;;;;;;;2.30;1.73;;;22.60;81.80;;;;;;5089444;28;20367;-70
2021/08/06 11:45:44;;;;;;;3.90;2.58;;;22.70;81.00;;;;;;5089870;28;20080;-73
2021/08/06 11:48:17;;;;;;;5.07;2.22;;;22.70;81.10;;;;;;5089884;28;20387;-71
2021/08/06 11:50:47;;;;;;;4.20;2.53;;;22.70;81.20;;;;;;5086211;28;20470;-74
2021/08/06 11:53:25;;;;;;;4.68;1.92;;;22.80;81.60;;;;;;5090210;28;20028;-74
2021/08/06 11:55:52;;;;;;;5.88;2.63;;;22.80;80.90;;;;;;5081533;28;20031;-75
2021/08/06 11:58:38;;;;;;;4.07;2.70;;;22.80;81.50;;;;;;5088073;28;20032;-74
2021/08/06 12:01:05;;;;;;;3.78;2.50;;;22.80;81.80;;;;;;5089137;28;20119;-71
2021/08/06 12:03:48;;;;;;;1.20;0.88;;;22.90;81.70;;;;;;5089989;28;20149;-69
2021/08/06 12:06:17;;;;;;;5.38;2.20;;;22.90;80.10;;;;;;5088767;28;20475;-72
2021/08/06 12:08:48;;;;;;;2.63;1.60;;;22.90;81.20;;;;;;5090492;28;20081;-73
2021/08/06 12:11:16;;;;;;;2.53;1.48;;;22.90;80.90;;;;;;5090574;28;20032;-69
2021/08/06 12:13:52;;;;;;;2.92;1.55;;;22.90;80.40;;;;;;5091156;28;20048;-69
2021/08/06 12:16:20;;;;;;;4.93;1.30;;;22.90;80.20;;;;;;5079577;28;20071;-69
2021/08/06 12:18:48;;;;;;;3.13;1.42;;;22.90;80.20;;;;;;5089927;28;20028;-68
2021/08/06 12:21:27;;;;;;;1.70;1.15;;;22.90;80.00;;;;;;5090866;28;20031;-68
2021/08/06 12:24:10;;;;;;;5.18;1.88;;;23.00;80.00;;;;;;5088134;28;20048;-69
2021/08/06 12:26:35;;;;;;;5.95;2.20;;;23.00;79.80;;;;;;5087862;28;20016;-70
2021/08/06 12:29:13;;;;;;;4.00;2.55;;;23.00;79.90;;;;;;5091626;28;20368;-68
2021/08/06 12:32:00;;;;;;;6.72;1.80;;;23.10;80.40;;;;;;5086839;28;20034;-68
2021/08/06 12:34:34;;;;;;;6.80;2.13;;;23.10;79.70;;;;;;5091331;28;20040;-69
2021/08/06 12:37:07;;;;;;;3.67;1.65;;;23.10;79.70;;;;;;5090350;28;20425;-68
2021/08/06 12:39:48;;;;;;;5.38;2.72;;;23.10;79.60;;;;;;5089445;28;20035;-69
2021/08/06 12:42:18;;;;;;;3.35;2.17;;;23.10;79.70;;;;;;5090464;28;20062;-68
2021/08/06 12:45:10;;;;;;;4.35;2.35;;;23.10;80.20;;;;;;5090607;28;20040;-69
2021/08/06 12:47:41;;;;;;;5.13;2.40;;;23.20;80.30;;;;;;5083729;28;20035;-72
2021/08/06 12:50:08;;;;;;;8.32;2.53;;;23.20;80.30;;;;;;5089707;28;20024;-70
2021/08/06 12:52:39;;;;;;;5.93;2.85;;;23.30;80.00;;;;;;5089899;28;20085;-72
2021/08/06 12:55:08;;;;;;;7.15;2.95;;;23.40;79.80;;;;;;5083230;28;20119;-74